createdAt,value
2018-08-19T00:00:26.231Z,21.28
2018-08-19T00:03:00.015Z,21.21
2018-08-19T00:05:28.273Z,21.16
2018-08-19T00:07:56.693Z,21.05
2018-08-19T00:10:42.126Z,21.01
2018-08-19T00:13:12.071Z,21.06
2018-08-19T00:15:41.064Z,20.98
2018-08-19T00:18:11.291Z,20.95
2018-08-19T00:20:39.537Z,21.08
2018-08-19T00:23:08.412Z,21.17
2018-08-19T00:25:41.837Z,21.17
2018-08-19T00:28:16.469Z,21.21
2018-08-19T00:30:44.869Z,21.21
2018-08-19T00:33:13.399Z,21.18
2018-08-19T00:35:41.553Z,21.10
2018-08-19T00:38:12.342Z,20.99
2018-08-19T00:40:41.114Z,20.98
2018-08-19T00:43:09.346Z,21.00
2018-08-19T00:45:38.428Z,21.00
2018-08-19T00:48:09.820Z,20.95
2018-08-19T00:50:38.394Z,20.99
2018-08-19T00:53:08.780Z,20.87
2018-08-19T00:55:42.677Z,20.82
2018-08-19T00:58:18.611Z,20.79
2018-08-19T01:00:46.999Z,20.79
2018-08-19T01:03:15.306Z,20.73
2018-08-19T01:05:43.550Z,20.65
2018-08-19T01:08:13.146Z,20.65
2018-08-19T01:10:41.889Z,20.66
2018-08-19T01:13:11.600Z,20.56
2018-08-19T01:15:39.801Z,20.57
2018-08-19T01:18:08.219Z,20.50
2018-08-19T01:20:36.450Z,20.57
2018-08-19T01:23:04.847Z,20.64
2018-08-19T01:25:33.613Z,20.60
2018-08-19T01:28:01.787Z,20.66
2018-08-19T01:30:30.069Z,20.74
2018-08-19T01:32:58.357Z,20.77
2018-08-19T01:35:31.984Z,20.86
2018-08-19T01:38:00.546Z,20.87
2018-08-19T01:40:28.725Z,20.85
2018-08-19T01:42:57.041Z,20.77
2018-08-19T01:45:25.229Z,20.51
2018-08-19T01:47:53.579Z,20.42
2018-08-19T01:50:21.759Z,20.43
2018-08-19T01:52:50.235Z,20.52
2018-08-19T01:55:19.125Z,20.65
2018-08-19T01:57:48.593Z,20.66
2018-08-19T02:00:17.283Z,20.76
2018-08-19T02:02:58.635Z,20.66
2018-08-19T02:05:26.931Z,20.49
2018-08-19T02:07:57.739Z,20.45
2018-08-19T02:10:26.780Z,20.34
2018-08-19T02:12:56.187Z,20.28
2018-08-19T02:15:25.344Z,20.24
2018-08-19T02:18:04.985Z,20.11
2018-08-19T02:20:39.396Z,20.12
2018-08-19T02:23:09.506Z,20.26
2018-08-19T02:25:44.051Z,20.29
2018-08-19T02:28:13.125Z,20.30
2018-08-19T02:30:51.497Z,20.35
2018-08-19T02:33:21.145Z,20.27
2018-08-19T02:35:54.718Z,20.25
2018-08-19T02:38:23.318Z,20.18
2018-08-19T02:40:53.288Z,20.20
2018-08-19T02:43:22.134Z,20.16
2018-08-19T02:45:50.348Z,20.03
2018-08-19T02:48:26.757Z,19.99
2018-08-19T02:50:55.180Z,19.95
2018-08-19T02:53:23.288Z,19.98
2018-08-19T02:55:51.420Z,20.00
2018-08-19T02:58:21.832Z,20.02
2018-08-19T03:00:51.498Z,19.95
2018-08-19T03:03:19.832Z,19.95
2018-08-19T03:05:52.556Z,19.94
2018-08-19T03:08:20.784Z,19.93
2018-08-19T03:10:49.072Z,19.94
2018-08-19T03:13:17.366Z,19.97
2018-08-19T03:15:45.578Z,19.98
2018-08-19T03:18:13.756Z,19.93
2018-08-19T03:20:42.001Z,19.79
2018-08-19T03:23:11.721Z,19.89
2018-08-19T03:25:39.912Z,19.80
2018-08-19T03:28:08.418Z,19.67
2018-08-19T03:30:37.307Z,19.59
2018-08-19T03:33:05.649Z,19.48
2018-08-19T03:35:33.912Z,19.48
2018-08-19T03:38:06.856Z,19.46
2018-08-19T03:40:35.268Z,19.38
2018-08-19T03:43:03.549Z,19.43
2018-08-19T03:45:31.783Z,19.40
2018-08-19T03:48:06.966Z,19.38
2018-08-19T03:50:37.503Z,19.40
2018-08-19T03:53:05.871Z,19.23
2018-08-19T03:55:37.179Z,19.14
2018-08-19T03:58:07.798Z,19.13
2018-08-19T04:00:37.657Z,19.19
2018-08-19T04:03:16.021Z,19.25
2018-08-19T04:05:53.762Z,19.30
2018-08-19T04:08:25.375Z,19.27
2018-08-19T04:10:53.711Z,19.16
2018-08-19T04:13:39.382Z,19.06
2018-08-19T04:16:09.063Z,19.02
2018-08-19T04:18:41.273Z,18.98
2018-08-19T04:21:10.618Z,18.97
2018-08-19T04:23:41.591Z,18.97
2018-08-19T04:26:09.928Z,18.98
2018-08-19T04:28:39.216Z,18.99
2018-08-19T04:31:13.928Z,18.97
2018-08-19T04:33:44.967Z,19.01
2018-08-19T04:36:15.312Z,19.03
2018-08-19T04:38:43.593Z,19.09
2018-08-19T04:41:12.053Z,19.13
2018-08-19T04:43:40.220Z,19.27
2018-08-19T04:46:08.398Z,19.39
2018-08-19T04:48:36.497Z,19.20
2018-08-19T04:51:04.704Z,19.18
2018-08-19T04:53:33.928Z,19.28
2018-08-19T04:56:02.080Z,19.24
2018-08-19T04:58:30.378Z,19.29
2018-08-19T05:00:58.615Z,19.33
2018-08-19T05:03:26.858Z,19.44
2018-08-19T05:05:57.263Z,19.54
2018-08-19T05:08:25.941Z,19.57
2018-08-19T05:10:53.832Z,19.64
2018-08-19T05:13:21.897Z,19.64
2018-08-19T05:15:50.003Z,19.78
2018-08-19T05:18:18.259Z,19.87
2018-08-19T05:20:46.499Z,19.88
2018-08-19T05:23:14.729Z,19.99
2018-08-19T05:25:48.506Z,20.05
2018-08-19T05:28:16.894Z,20.16
2018-08-19T05:30:46.030Z,20.32
2018-08-19T05:33:14.629Z,20.41
2018-08-19T05:35:42.826Z,20.57
2018-08-19T05:38:11.053Z,20.69
2018-08-19T05:40:48.769Z,20.70
2018-08-19T05:43:16.901Z,20.73
2018-08-19T05:45:51.083Z,20.85
2018-08-19T05:48:19.195Z,21.42
2018-08-19T05:50:47.367Z,22.14
2018-08-19T05:53:22.319Z,23.04
2018-08-19T05:55:50.870Z,23.73
2018-08-19T05:58:19.384Z,24.18
2018-08-19T06:00:51.969Z,24.87
2018-08-19T06:03:20.176Z,25.09
2018-08-19T06:05:48.289Z,25.33
2018-08-19T06:08:16.534Z,25.56
2018-08-19T06:10:44.752Z,25.48
2018-08-19T06:13:12.958Z,26.07
2018-08-19T06:15:41.180Z,27.10
2018-08-19T06:18:09.546Z,27.58
2018-08-19T06:20:37.670Z,28.03
2018-08-19T06:23:05.842Z,28.39
2018-08-19T06:25:34.030Z,29.49
2018-08-19T06:28:02.181Z,29.71
2018-08-19T06:30:30.507Z,29.91
2018-08-19T06:32:59.311Z,30.39
2018-08-19T06:35:27.459Z,30.13
2018-08-19T06:37:55.744Z,29.38
2018-08-19T06:40:24.084Z,29.41
2018-08-19T06:42:52.338Z,30.25
2018-08-19T06:45:20.566Z,30.87
2018-08-19T06:47:48.742Z,31.95
2018-08-19T06:50:30.002Z,32.56
2018-08-19T06:52:58.508Z,32.72
2018-08-19T06:55:27.125Z,33.20
2018-08-19T06:57:57.368Z,34.25
2018-08-19T07:00:27.038Z,35.15
2018-08-19T07:02:59.249Z,33.74
2018-08-19T07:05:27.575Z,34.58
2018-08-19T07:07:55.809Z,35.35
2018-08-19T07:10:31.145Z,35.88
2018-08-19T07:13:08.032Z,37.05
2018-08-19T07:15:37.544Z,38.19
2018-08-19T07:18:07.843Z,37.76
2018-08-19T07:20:37.493Z,37.27
2018-08-19T07:23:06.290Z,38.99
2018-08-19T07:25:36.851Z,38.67
2018-08-19T07:28:06.441Z,39.11
2018-08-19T07:30:34.537Z,40.04
2018-08-19T07:33:02.678Z,39.25
2018-08-19T07:35:30.832Z,39.67
2018-08-19T07:37:59.108Z,39.14
2018-08-19T07:40:27.247Z,40.08
2018-08-19T07:42:55.346Z,39.50
2018-08-19T07:45:23.613Z,41.49
2018-08-19T07:47:51.866Z,42.55
2018-08-19T07:50:20.037Z,43.25
2018-08-19T07:52:48.299Z,43.99
2018-08-19T07:55:16.420Z,44.32
2018-08-19T07:57:44.596Z,44.61
2018-08-19T08:00:12.996Z,45.28
2018-08-19T08:02:41.739Z,44.98
2018-08-19T08:05:10.732Z,45.33
2018-08-19T08:07:43.973Z,44.85
2018-08-19T08:10:12.231Z,45.97
2018-08-19T08:12:40.429Z,46.55
2018-08-19T08:15:09.312Z,46.63
2018-08-19T08:17:38.173Z,47.06
2018-08-19T08:20:07.450Z,47.13
2018-08-19T08:22:36.668Z,46.97
2018-08-19T08:25:08.921Z,47.50
2018-08-19T08:27:37.218Z,46.13
2018-08-19T08:30:10.156Z,48.18
2018-08-19T08:32:39.008Z,49.34
2018-08-19T08:35:07.785Z,49.68
2018-08-19T08:37:36.024Z,49.73
2018-08-19T08:40:09.626Z,49.92
2018-08-19T08:42:40.434Z,46.30
2018-08-19T08:45:10.177Z,49.51
2018-08-19T08:47:38.539Z,48.56
2018-08-19T08:50:07.741Z,50.71
2018-08-19T08:52:35.946Z,51.90
2018-08-19T08:55:08.478Z,52.69
2018-08-19T08:57:38.369Z,53.02
2018-08-19T09:00:08.728Z,52.81
2018-08-19T09:02:36.920Z,52.26
2018-08-19T09:05:07.891Z,51.75
2018-08-19T09:07:36.035Z,52.48
2018-08-19T09:10:04.741Z,52.30
2018-08-19T09:12:56.257Z,53.59
2018-08-19T09:15:24.515Z,53.41
2018-08-19T09:17:52.676Z,52.60
2018-08-19T09:20:20.928Z,52.36
2018-08-19T09:22:56.001Z,52.67
2018-08-19T09:25:31.189Z,53.07
2018-08-19T09:27:59.405Z,53.76
2018-08-19T09:30:35.007Z,51.32
2018-08-19T09:33:03.452Z,53.95
2018-08-19T09:35:32.844Z,54.49
2018-08-19T09:38:06.703Z,54.47
2018-08-19T09:40:35.797Z,55.71
2018-08-19T09:43:04.696Z,56.34
2018-08-19T09:45:32.875Z,54.37
2018-08-19T09:48:02.027Z,47.71
2018-08-19T09:50:30.636Z,53.23
2018-08-19T09:52:59.004Z,55.21
2018-08-19T09:55:44.407Z,56.14
2018-08-19T09:58:19.297Z,56.16
2018-08-19T10:00:53.150Z,54.52
2018-08-19T10:03:21.566Z,53.50
2018-08-19T10:05:49.806Z,54.89
2018-08-19T10:08:21.201Z,54.82
2018-08-19T10:10:49.858Z,55.70
2018-08-19T10:13:18.326Z,56.14
2018-08-19T10:15:46.714Z,55.45
2018-08-19T10:18:15.066Z,55.09
2018-08-19T10:20:43.278Z,55.52
2018-08-19T10:23:11.610Z,54.95
2018-08-19T10:25:39.906Z,54.58
2018-08-19T10:28:08.206Z,53.74
2018-08-19T10:30:44.434Z,54.29
2018-08-19T10:33:12.762Z,52.29
2018-08-19T10:35:41.070Z,54.32
2018-08-19T10:38:09.201Z,53.36
2018-08-19T10:40:37.374Z,54.97
2018-08-19T10:43:07.678Z,55.20
2018-08-19T10:45:39.381Z,56.78
2018-08-19T10:48:10.866Z,57.84
2018-08-19T10:50:39.078Z,55.91
2018-08-19T10:53:16.048Z,55.16
2018-08-19T10:55:45.730Z,54.26
2018-08-19T10:58:13.961Z,54.81
2018-08-19T11:00:42.404Z,55.16
2018-08-19T11:03:16.061Z,55.59
2018-08-19T11:05:45.027Z,54.66
2018-08-19T11:08:13.274Z,55.55
2018-08-19T11:10:41.633Z,56.78
2018-08-19T11:13:09.805Z,57.52
2018-08-19T11:15:50.870Z,55.18
2018-08-19T11:18:39.909Z,56.42
2018-08-19T11:21:12.395Z,56.46
2018-08-19T11:23:42.123Z,56.54
2018-08-19T11:26:11.079Z,56.96
2018-08-19T11:28:42.622Z,56.73
2018-08-19T11:31:20.386Z,57.48
2018-08-19T11:33:49.174Z,58.54
2018-08-19T11:36:17.616Z,59.04
2018-08-19T11:38:51.800Z,59.42
2018-08-19T11:41:20.531Z,60.59
2018-08-19T11:43:50.262Z,60.83
2018-08-19T11:46:18.821Z,59.40
2018-08-19T11:48:54.711Z,58.96
2018-08-19T11:51:41.632Z,58.52
2018-08-19T11:54:11.438Z,60.00
2018-08-19T11:56:39.682Z,59.90
2018-08-19T11:59:08.234Z,59.85
2018-08-19T12:01:36.572Z,59.16
2018-08-19T12:04:08.124Z,58.93
2018-08-19T12:06:36.392Z,59.23
2018-08-19T12:09:07.624Z,59.37
2018-08-19T12:11:37.126Z,60.14
2018-08-19T12:14:07.936Z,59.24
2018-08-19T12:16:44.420Z,60.11
2018-08-19T12:19:19.637Z,60.12
2018-08-19T12:21:51.250Z,56.39
2018-08-19T12:24:23.576Z,59.28
2018-08-19T12:26:56.674Z,59.48
2018-08-19T12:29:27.632Z,60.01
2018-08-19T12:32:03.963Z,58.68
2018-08-19T12:34:32.655Z,58.68
2018-08-19T12:37:01.019Z,58.90
2018-08-19T12:39:29.121Z,59.87
2018-08-19T12:41:57.368Z,60.14
2018-08-19T12:44:25.539Z,60.28
2018-08-19T12:47:07.418Z,59.70
2018-08-19T12:49:41.250Z,58.23
2018-08-19T12:52:11.109Z,58.84
2018-08-19T12:54:39.254Z,59.40
2018-08-19T12:57:07.629Z,59.59
2018-08-19T12:59:38.839Z,60.30
2018-08-19T13:02:07.069Z,59.24
2018-08-19T13:04:35.309Z,58.54
2018-08-19T13:07:12.013Z,58.13
2018-08-19T13:09:40.357Z,56.81
2018-08-19T13:12:10.533Z,56.56
2018-08-19T13:14:38.693Z,55.78
2018-08-19T13:17:07.247Z,56.63
2018-08-19T13:19:35.481Z,57.04
2018-08-19T13:22:03.898Z,56.00
2018-08-19T13:24:35.867Z,55.86
2018-08-19T13:27:04.659Z,54.07
2018-08-19T13:29:33.318Z,54.96
2018-08-19T13:32:01.575Z,55.16
2018-08-19T13:34:29.743Z,54.79
2018-08-19T13:36:58.388Z,54.22
2018-08-19T13:39:27.540Z,53.74
2018-08-19T13:41:55.744Z,51.85
2018-08-19T13:44:24.041Z,52.53
2018-08-19T13:46:52.318Z,52.61
2018-08-19T13:49:23.240Z,50.81
2018-08-19T13:51:51.556Z,50.34
2018-08-19T13:54:20.556Z,50.34
2018-08-19T13:56:48.762Z,51.87
2018-08-19T13:59:17.196Z,51.12
2018-08-19T14:01:45.342Z,50.56
2018-08-19T14:04:13.544Z,51.09
2018-08-19T14:06:43.112Z,51.13
2018-08-19T14:09:11.720Z,51.62
2018-08-19T14:11:40.189Z,51.71
2018-08-19T14:14:09.170Z,51.53
2018-08-19T14:16:37.464Z,51.77
2018-08-19T14:19:06.050Z,50.11
2018-08-19T14:21:34.320Z,48.88
2018-08-19T14:24:03.012Z,47.05
2018-08-19T14:26:31.536Z,44.21
2018-08-19T14:28:59.701Z,41.60
2018-08-19T14:31:28.852Z,40.20
2018-08-19T14:33:57.032Z,39.09
2018-08-19T14:36:25.306Z,37.75
2018-08-19T14:38:53.599Z,37.29
2018-08-19T14:41:21.930Z,37.06
2018-08-19T14:44:01.168Z,36.78
2018-08-19T14:46:30.443Z,36.13
2018-08-19T14:49:01.709Z,35.99
2018-08-19T14:51:54.856Z,35.80
2018-08-19T14:54:23.255Z,35.52
2018-08-19T14:56:51.548Z,35.42
2018-08-19T14:59:19.838Z,35.10
2018-08-19T15:01:48.105Z,34.98
2018-08-19T15:04:17.132Z,34.91
2018-08-19T15:06:46.323Z,34.83
2018-08-19T15:09:18.353Z,34.63
2018-08-19T15:11:46.660Z,34.61
2018-08-19T15:14:19.191Z,34.48
2018-08-19T15:16:51.990Z,34.62
2018-08-19T15:19:20.264Z,34.44
2018-08-19T15:21:54.314Z,34.43
2018-08-19T15:24:22.745Z,34.49
2018-08-19T15:26:50.935Z,34.45
2018-08-19T15:29:24.783Z,34.47
2018-08-19T15:31:53.329Z,34.30
2018-08-19T15:34:21.779Z,34.36
2018-08-19T15:36:50.312Z,34.31
2018-08-19T15:39:18.769Z,34.26
2018-08-19T15:41:47.349Z,34.15
2018-08-19T15:44:15.588Z,34.22
2018-08-19T15:46:45.380Z,33.96
2018-08-19T15:49:13.846Z,33.83
2018-08-19T15:51:42.050Z,33.98
2018-08-19T15:54:10.598Z,33.93
2018-08-19T15:56:38.864Z,33.92
2018-08-19T15:59:11.486Z,33.90
2018-08-19T16:01:39.992Z,33.82
2018-08-19T16:04:17.262Z,33.73
2018-08-19T16:06:46.776Z,33.73
2018-08-19T16:09:17.924Z,33.61
2018-08-19T16:11:46.700Z,33.73
2018-08-19T16:14:23.597Z,33.79
2018-08-19T16:16:52.905Z,33.88
2018-08-19T16:19:21.254Z,33.67
2018-08-19T16:21:51.646Z,33.46
2018-08-19T16:24:20.064Z,33.27
2018-08-19T16:26:48.594Z,33.26
2018-08-19T16:29:16.967Z,33.25
2018-08-19T16:31:45.266Z,33.08
2018-08-19T16:34:13.674Z,33.21
2018-08-19T16:36:41.785Z,33.27
2018-08-19T16:39:12.241Z,33.27
2018-08-19T16:41:41.191Z,33.14
2018-08-19T16:44:09.748Z,33.00
2018-08-19T16:46:38.043Z,33.08
2018-08-19T16:49:06.646Z,33.01
2018-08-19T16:51:35.701Z,32.92
2018-08-19T16:54:04.591Z,32.83
2018-08-19T16:56:33.175Z,32.75
2018-08-19T16:59:01.456Z,32.70
2018-08-19T17:01:29.971Z,32.58
2018-08-19T17:03:58.224Z,32.54
2018-08-19T17:06:26.433Z,32.46
2018-08-19T17:08:54.527Z,32.41
2018-08-19T17:11:22.685Z,32.33
2018-08-19T17:13:50.897Z,32.31
2018-08-19T17:16:19.123Z,32.13
2018-08-19T17:18:47.276Z,32.06
2018-08-19T17:21:15.547Z,31.94
2018-08-19T17:23:47.709Z,31.98
2018-08-19T17:26:24.522Z,31.78
2018-08-19T17:28:52.877Z,31.52
2018-08-19T17:31:21.108Z,31.34
2018-08-19T17:33:49.227Z,31.24
2018-08-19T17:36:25.354Z,31.13
2018-08-19T17:38:53.577Z,31.11
2018-08-19T17:41:21.891Z,31.01
2018-08-19T17:43:50.023Z,30.92
2018-08-19T17:46:19.774Z,30.72
2018-08-19T17:48:48.111Z,30.54
2018-08-19T17:51:31.687Z,30.46
2018-08-19T17:53:59.938Z,30.36
2018-08-19T17:56:29.118Z,30.27
2018-08-19T17:58:57.292Z,30.19
2018-08-19T18:01:25.556Z,30.07
2018-08-19T18:03:53.730Z,29.98
2018-08-19T18:06:24.788Z,29.88
2018-08-19T18:08:53.346Z,29.78
2018-08-19T18:11:21.737Z,29.65
2018-08-19T18:13:50.111Z,29.53
2018-08-19T18:16:18.633Z,29.47
2018-08-19T18:18:47.602Z,29.36
2018-08-19T18:21:16.474Z,29.22
2018-08-19T18:23:46.710Z,29.09
2018-08-19T18:26:15.162Z,28.99
2018-08-19T18:28:45.460Z,28.96
2018-08-19T18:31:14.654Z,28.84
2018-08-19T18:33:50.500Z,28.74
2018-08-19T18:36:20.256Z,28.62
2018-08-19T18:38:48.563Z,28.51
2018-08-19T18:41:24.109Z,28.44
2018-08-19T18:43:55.650Z,28.30
2018-08-19T18:46:24.788Z,28.35
2018-08-19T18:49:01.160Z,28.24
2018-08-19T18:51:30.619Z,28.12
2018-08-19T18:53:59.127Z,28.07
2018-08-19T18:56:28.154Z,27.95
2018-08-19T18:58:56.364Z,27.93
2018-08-19T19:01:24.766Z,27.88
2018-08-19T19:03:52.968Z,27.81
2018-08-19T19:06:21.184Z,27.67
2018-08-19T19:08:49.386Z,27.61
2018-08-19T19:11:23.092Z,27.55
2018-08-19T19:13:51.252Z,27.41
2018-08-19T19:16:26.395Z,27.29
2018-08-19T19:18:54.589Z,27.21
2018-08-19T19:21:22.823Z,27.17
2018-08-19T19:23:51.043Z,27.05
2018-08-19T19:26:27.031Z,27.05
2018-08-19T19:28:56.162Z,27.04
2018-08-19T19:31:24.305Z,26.94
2018-08-19T19:34:02.081Z,26.82
2018-08-19T19:36:30.347Z,26.72
2018-08-19T19:38:58.848Z,26.61
2018-08-19T19:41:30.377Z,26.59
2018-08-19T19:45:02.475Z,26.55
2018-08-19T19:47:30.657Z,26.39
2018-08-19T19:49:59.354Z,26.31
2018-08-19T19:52:28.009Z,26.34
2018-08-19T19:54:57.092Z,26.32
2018-08-19T19:57:25.267Z,26.21
2018-08-19T19:59:53.397Z,26.29
2018-08-19T20:02:27.138Z,26.21
2018-08-19T20:04:55.406Z,26.14
2018-08-19T20:07:23.791Z,26.11
2018-08-19T20:09:52.083Z,26.04
2018-08-19T20:12:25.916Z,25.93
2018-08-19T20:14:54.492Z,25.82
2018-08-19T20:17:22.741Z,25.75
2018-08-19T20:19:50.952Z,25.78
2018-08-19T20:22:19.460Z,25.76
2018-08-19T20:24:47.741Z,25.66
2018-08-19T20:27:16.638Z,25.59
2018-08-19T20:29:46.481Z,25.53
2018-08-19T20:32:21.824Z,25.47
2018-08-19T20:34:50.148Z,25.48
2018-08-19T20:37:21.964Z,25.57
2018-08-19T20:39:50.305Z,25.52
2018-08-19T20:42:18.521Z,25.49
2018-08-19T20:44:46.687Z,25.47
2018-08-19T20:47:14.917Z,25.49
2018-08-19T20:49:43.549Z,25.42
2018-08-19T20:52:11.681Z,25.33
2018-08-19T20:54:39.804Z,25.25
2018-08-19T20:57:08.018Z,25.23
2018-08-19T20:59:37.436Z,25.21
2018-08-19T21:02:07.154Z,25.20
2018-08-19T21:04:35.534Z,25.19
2018-08-19T21:07:04.565Z,25.12
2018-08-19T21:09:34.333Z,25.05
2018-08-19T21:12:02.827Z,24.93
2018-08-19T21:14:31.151Z,24.89
2018-08-19T21:17:02.815Z,24.80
2018-08-19T21:19:31.180Z,24.83
2018-08-19T21:21:59.267Z,24.80
2018-08-19T21:24:27.585Z,24.84
2018-08-19T21:26:59.266Z,24.82
2018-08-19T21:29:27.875Z,24.75
2018-08-19T21:31:56.041Z,24.70
2018-08-19T21:34:24.147Z,24.61
2018-08-19T21:36:52.267Z,24.51
2018-08-19T21:39:20.563Z,24.46
2018-08-19T21:41:52.478Z,24.45
2018-08-19T21:44:20.805Z,24.37
2018-08-19T21:46:49.043Z,24.38
2018-08-19T21:49:17.437Z,24.31
2018-08-19T21:51:45.957Z,24.21
2018-08-19T21:54:15.348Z,24.17
2018-08-19T21:56:43.621Z,24.08
2018-08-19T21:59:17.425Z,23.99
2018-08-19T22:01:50.285Z,23.93
2018-08-19T22:04:20.336Z,23.94
2018-08-19T22:06:48.715Z,23.97
2018-08-19T22:09:36.759Z,23.91
2018-08-19T22:12:06.664Z,23.92
2018-08-19T22:14:34.879Z,23.95
2018-08-19T22:17:05.104Z,23.92
2018-08-19T22:19:34.043Z,23.88
2018-08-19T22:22:02.463Z,23.78
2018-08-19T22:24:30.746Z,23.71
2018-08-19T22:27:05.067Z,23.68
2018-08-19T22:29:33.425Z,23.64
2018-08-19T22:32:01.770Z,23.59
2018-08-19T22:34:30.173Z,23.51
2018-08-19T22:36:58.385Z,23.47
2018-08-19T22:39:26.557Z,23.45
2018-08-19T22:41:54.862Z,23.46
2018-08-19T22:44:24.120Z,23.45
2018-08-19T22:46:52.476Z,23.36
2018-08-19T22:49:20.867Z,23.31
2018-08-19T22:51:49.024Z,23.24
2018-08-19T22:54:17.653Z,23.18
2018-08-19T22:56:46.146Z,23.21
2018-08-19T22:59:14.192Z,23.09
2018-08-19T23:01:46.970Z,23.07
2018-08-19T23:04:15.151Z,23.16
2018-08-19T23:06:43.407Z,23.15
2018-08-19T23:09:11.620Z,23.09
2018-08-19T23:11:45.952Z,23.01
2018-08-19T23:14:31.188Z,22.91
2018-08-19T23:17:14.434Z,22.89
2018-08-19T23:19:42.672Z,22.91
2018-08-19T23:22:10.962Z,22.86
2018-08-19T23:24:39.232Z,22.98
2018-08-19T23:27:07.437Z,22.96
2018-08-19T23:29:35.611Z,22.86
2018-08-19T23:32:04.085Z,22.88
2018-08-19T23:34:32.201Z,22.78
2018-08-19T23:37:00.418Z,22.71
2018-08-19T23:39:29.272Z,22.76
2018-08-19T23:41:57.735Z,22.71
2018-08-19T23:44:25.796Z,22.68
2018-08-19T23:46:54.386Z,22.72
2018-08-19T23:49:22.603Z,22.63
2018-08-19T23:51:50.733Z,22.64
2018-08-19T23:54:19.139Z,22.61
2018-08-19T23:56:47.543Z,22.57
2018-08-19T23:59:20.683Z,22.60
